Terminal Aerodrome Forecast
Issued by NWS

Home | Current Version | Previous Version | Graphics & Text | Print | Product List | Glossary On
Versions: 1 2 3 4 5 6 7 8 9 10 11 12 13 14 15 16 17 18 19 20 21 22 23 24 25 26 27 28 29 30 31 32 33
000
FTUS43 KLOT 292332
TAFDPA
TAF
KDPA 292332Z 3000/3024 VRB05KT P6SM VCSH SCT025 BKN060
     FM300200 00000KT P6SM SCT060 BKN250
     FM300500 27005KT 5SM -SHRA BR SCT010 BKN035
     FM300800 28005KT 4SM BR OVC020
     FM301400 29009KT P6SM BKN035
     FM301800 33010KT P6SM VCSH BKN045=

USA.gov is the U.S. government's official web portal to all federal, state and local government web resources and services.